Tuesday, May 24, 2016
15:41 UTC
  |  Log In   |  Register Free
Airport Search:

Ormond Beach Municipal Airport
(KOMN)

FAA data valid effective Mar 31 2016 - May 26 2016 (unless otherwise noted).

 
 
 
 
 
 
 
 
 
 
 
 
 
 
Current Aviation Weather for KOMN

Weather Summary


The most recent METAR observation for OMN was updated at: 12:50 UTC
METAR for KOMN is not available. Closest METAR is for KDAB
KOMN  (most recent observation was updatred at 24:14 UTC)
241450Z 09009KT 10SM SCT030 27/19 A3013

KDAB  (7.8 nm NW)   (most recent observation was updated at 24:14 UTC)
241453Z 09009G15KT 10SM SCT034TCU SCT250 28/20 A3013 RMK AO2 SLP201 TCUS T02830200 51020

KFIN  (11.1 nm SE)   (most recent observation was updated at 24:14 UTC)
241450Z 08006KT 10SM CLR 28/18 A3013

TAF for KOMN is not available.
KDAB  (7.8 nm NW)   (most recent observation was updatred at 24:11 UTC)
241134Z 2412/2512 00000KT P6SM FEW050 BKN250 FM241400 09007KT P6SM SCT035 FM241600 08011G18KT P6SM SCT040 FM250000 08003KT P6SM SCT060


KSFB  (32.1 nm NE)   (most recent observation was updatred at 24:11 UTC)
241134Z 2412/2512 08004KT P6SM FEW045 BKN250 FM241400 12008KT P6SM SCT040 SCT250 FM242000 10012KT P6SM SCT050 SCT250 FM250100 11005KT P6SM SCT060 SCT250


GlobalAir.com is loading additional information.
 Current Weather at OMN
81.0 F° (27.0 C°)

East winds at 8.1 mph
Pressure:
30.11 in
Humidity:
62%
Wind:
East at 8.1 mph
Dew Point:
66.2 F° (19.0 C°)
Visibility:
7.00 mi
OMN NOAA Radar




Find All Airport Services Find A Hotel Find A Rental Car Find A Golf Course Find A Restaurant $100 Hamburger



Airport Weather Forecast for KOMN

Translated METAR for KOMN (1450 UTC)
METAR:
KOMN 241450Z 09009KT 10SM SCT030 27/19 A3013
Conditions at:
KOMN (Ormond Beach Muni, FL) observed 1450 UTC 24 May 2016
Temperature:
27°C (80.6°F)
Dewpoint:
19°C (66.2°F) [RH = 61.6]
Pressure:
30.13 inches Hg (1020.3 mb)
Winds:
from the E (090 degrees) at 10.4 mph (9 knots: 4.6 m/s)
Visibility:
10 mile(s)
Ceiling:
at least 12,000 feet AGL
Clouds:
Scattered Clouds at 3,000 feet AGL
Remarks:

Translated TAF for KDAB (Daytona Beach Intl, FL) (1134 UTC)
TAF text:
KDAB 241134Z 2412/2512 00000KT P6SM FEW050 BKN250
Forecast period:
Tuesday May 24 2016 12:00 UTC - Wednesday May 25 2016 12:00 UTC
Forecast type:
FROM: standard forecast or significant change
Winds:
from the N (000 degrees) at 0 mph (0 knots: 0 m/s)
Visibility:
6 or more mile(s) (9.7+ km)
Ceiling:
25,000 feet AGL
Clouds:
Few Clouds at 5,000 feet AGL
Broken Cloud Cover at 25,000 feet AGL
Weather:
no significant weather observed at this time
TAF text:
FM241400 09007KT P6SM SCT035
Forecast period:
Tuesday May 24 2016 14:00 UTC - Tuesday May 24 2016 16:00 UTC
Forecast type:
FROM: standard forecast or significant change
Winds:
from the E (090 degrees) at 8.1 mph (7 knots: 3.6 m/s)
Visibility:
6 or more mile(s) (9.7+ km)
Ceiling:
at least 12,000 feet AGL
Clouds:
Scattered Clouds at 3,500 feet AGL
Weather:
no significant weather observed at this time
TAF text:
FM241600 08011G18KT P6SM SCT040
Forecast period:
Tuesday May 24 2016 16:00 UTC - Wednesday May 25 2016 00:00 UTC
Forecast type:
FROM: standard forecast or significant change
Winds:
from the E (080 degrees) at 12.7 mph (11 knots: 5.7 m/s)
gusting to 20.7 mph (18 knots: 9.3 m/s)
Visibility:
6 or more mile(s) (9.7+ km)
Ceiling:
at least 12,000 feet AGL
Clouds:
Scattered Clouds at 4,000 feet AGL
Weather:
no significant weather observed at this time
TAF text:
FM250000 08003KT P6SM SCT060
Forecast period:
Wednesday May 25 2016 00:00 UTC - Wednesday May 25 2016 12:00 UTC
Forecast type:
FROM: standard forecast or significant change
Winds:
from the E (080 degrees) at 3.5 mph (3 knots: 1.5 m/s)
Visibility:
6 or more mile(s) (9.7+ km)
Ceiling:
at least 12,000 feet AGL
Clouds:
Scattered Clouds at 6,000 feet AGL
Weather:
no significant weather observed at this time
FBO's on the Field
FBO Company Facility Photos Services Transportation Aviation Fuel Prices: Prices include tax
Catering Weather Repair Courtesy Rental Type 100LL JetA JetA+ MOGAS 8087
 
Sunrise Aviation

Currently rated 5 by 3 people
FS:Shell
Last Updated: May-13
Login to update fuel prices
SS:
Contact Sunrise AviationMore FBO Information
 
Add another FBO Facility Photos Catering Weather Repair Courtesy Rental Type 100LL JetA JetA+ MOGAS 8087
Services Transportation Aviation Fuel Prices: Prices include tax


model-print
model-print
model-print
model-print